Tokeland, Washington
Current Conditions -  °F | °C
As of 1:53 PM on Saturday 25 Oct 2014 (Local Time) from KHQM Reporting Station
Moderate Rain Moderate Rain  
Wind Chill: 55°   Ceiling: 4400
Heat Index: 55°   Visibility: 1.7mi
Dew Point: 52°   Wind: 21mph
Humidity: 89%   Direction: 50°NE
Pressure: 29.19"   Gusts: 31mph
Location:  46.71°N, 123.98°W
Report Text: KHQM 252053Z AUTO 05018G27KT 1 3/4SM RA BR BKN044 OVC060 13/11 A2919 RMK AO2 PK WND 05027/2053 PRESFR SLP889 P0012 60020 T01280111 58053
Loading
Personal Weather Stations






























Interactive Weather Map
Tropical Storm Tracking
New forecast layout! Learn more

10-Day Weather Forecast

Advertisements
Track Severe Weather on mobile